Race Results for
Central Coast Cyclocross Series-Sunday
Prunedale, CA
(Event Information)
Cyclo-cross on 09/10/2011

Note: Ranking points are NOT upgrade points. An explanation of ranking points can be found here.


Men - Cat 3/4 - B

 Place Points NameCity, StateTime USAC #BibTeam
1510.78Ricardo Moran   Oakland, CA00:40:35 307900  812 Wrench Science
2515.15Andrew Hammond   Morgan Hill, CA00:41:17 191844  816 Specialized
3Brent Carkeet   00:41:22  805 Sterling Sports
4523.89Evan Rossow   Salinas, CA00:41:23 312832  818 DC-10
5528.26Cory Caldwell (1 - Cat4)   Lafayette, CA00:41:40 136638  806 unattached
6Gabriel F.   00:41:43  817 Scotts Valley Cycling Sports
7537.00Robert Gaukel   Santa Cruz, CA00:42:16 261233  809 Bike Trip/Symantec
8Chris Afkinson   00:42:38  813 Team Crash
9Myles Lucas   00:42:39  802 Off the Chain Bikes
10550.11Scott Moore   Santa Cruz, CA00:44:08 256976  808 Bike Trip/Symantec
11Peter Chang   00:44:34  822 unattached
12558.85Lee Slone   Campbell, CA00:44:35 324754  801 Sheila Moon/Big Swinging Cycles
13563.22jason milliron   Redwood City, CA00:44:41 287507  810 Webcore/Alto Velo
14567.59Kevin White   San Francisco, CA00:44:41 256199  819 Chica Sexy
15Ted Ketai   00:45:40  820 Sheila Moon/Big Swinging Cycles
16576.33Mark Colton   Santa Cruz, CA00:46:00 302872  800 Team SoCal Cross
17Francis Jose   00:49:14  814 Team Crash
18585.07Rick Ortenblad   Santa Cruz, CA00:50:32 359872  803 Spokesman
19Martin Kozera   DNF  815 unattached

Men - Cat 3/4 - C

 Place Points NameCity, StateTime USAC #BibTeam
1540.00Christian Parker   San Mateo, CA00:42:45 213926  125 Menlo Velo Bike Shop
2542.63Chris Martinez   Hercules, CA00:43:23 279813  136 BBC
3Tony Donato   00:44:15  143 Mason Racing
4547.89christopher rippey   Palo Alto Ca00:45:12 358809  124 Stanford University
5Chris Neher   00:46:21  135 Off the Chain
6Joseph Togoan   00:46:27  123 
7555.78Greg Tsutaoka   Oakland, CA00:46:28 296665  134 BBC
8558.41Steven Woo   Los Altos, CA00:48:38 38840  133 Third Pillar
9Adam Gerhart   00:48:45  138 Sheila Moon
10Jim Warwick   00:48:57  142 Salinas Cowboys
11William Mckenna   00:49:35  130 
12Matthew Eckler   00:50:01  132 
13Matthew Garcia   00:50:23  129 
14574.19Raymond (Chip) Gale   San Mateo, CA00:50:23 146190  140 Third Pillar
15Joe Stanwyck   00:51:17  131 
16Hector Munoz   00:52:38  144 
17582.08Eric Sorenson (1 - Cat4)   Campbell, CA@1 Lap 297415  121 SJBC
18Hans Scharoeder   DNF  139 
19John Paradine   DNF  128 
20589.97Charles Cushman (2 - Cat4)   Carlsbad, CADNF 276207  122 

Men - Cat 2/3/4 - Single Speed B

 Place Points NameCity, StateTime USAC #BibTeam
1Christian Parker   San Mateo, CA00:42:33 213926  126 CoreTechs Cycling Team
2Ric Rodriquez   00:43:55  146 unattached
3Oliver Bellevue   00:44:13  148 UCSF
4christopher rippey   Palo Alto Ca00:44:45 358809  127 Stanford University
5Eric Lowe   00:44:56  147 HUP United
6Dan Bernards   00:46:30  137 

Men - Cat 2/3/4 - Master B - 35-99

 Place Points NameCity, StateTime USAC #BibTeam
1507.72Jon Mason   Tallahassee, FL00:41:35 282633  612 Bay 101/HRS/Rocklobster
2Blake Von Knopka   00:42:23  631 ?
3Kevin McHugh   00:42:25  618 unattached
4Mike Hyde   00:42:40  603 Buy-Cell.com
5Brian Mcain   00:42:40  616 unattached
6523.52Kjeld Christensen   Scotts Valley, CA00:42:45 6842  604 Spokesman
7526.68Rafael Mendez (1 - Cat4)   Carmel, CA00:42:52 286523  628 Sterling
8529.84Michael James (1 - Cat3)   Templeton, CA00:42:54 17631  624 SLO-Nexus
9Joseph Desante   00:43:37  629 Bike Station Aptos
10536.16John Raedeke (2 - Cat3)   Santa Cruz, CA00:44:03 151929  632 Pistis
11unknown rider   00:44:06  615 
12542.48Brad Basford (2 - Cat4)   Sanjose, CA00:44:06 308626  623 Alpine Velo
13545.64Ryan Larson (3 - Cat4)   Seattle, WA00:44:45 307664  613 Pacific Power
14548.80David Crum   Santa Cruz, CA00:44:49 8261  605 SCCCC
15551.96Piet Vandervelde (3 - Cat3)   Morgan Hill, CA00:44:55 333070  621 CalGiant/Specialized
16555.12Mark Woloschuk (4 - Cat4)   San Francisco, CA00:45:03 301853  630 Sheia Moon
17Michael Schauller   00:45:06  811 unattached
18561.44Matthew Schwartz   Santa Cruz, CA00:45:15 354410  611 HUP United
19564.60Chris DuBurg (5 - Cat4)   Los Gatos, CA00:45:23 232893  626 Sheia Moon
20Robin Roby   00:45:55  627 Church of the Sweet Ride
21Rich Rhodes   00:46:01  610 Hunter Freewheel
22574.08Russell Pratt   Foster City, CA00:46:14 251974  622 unattached
23577.24David Gill   Seabrook, TX00:46:38 62119  608 Dolore Grotte/Big Swingin Cycles
24580.40Marc Wittenberg (4 - Cat3)   Santa Rosa, CA00:47:44 38731  614 SYCIP
25583.56Dan Oehlberg (5 - Cat3)   San Francisco@1 Lap 302804  602 Mission Cycling
26Brian Mcmirin   DNF  600 BT Racing
27Pete Rudolph   DNF  620 Sheia Moon

Men - Cat 2/3/4 - Master B - 45-99

 Place Points NameCity, StateTime USAC #BibTeam
1513.15Raymond (Chip) Gale   San Mateo, CA00:42:21 146190  309 Third Pillar
2517.04C Jeffrey Bramlett   Palo Alto, CA00:42:28 202272  330 Third Pillar
3520.93Chris Baker (1 - Cat4)   Charlotte, NC00:42:53 2310  323 Bicycle Trip/Symantec
4David Tripier   00:43:14  324 Coretech
5528.71Benoit Dubuisson   Mountain View, CA00:43:20 158127  326 Bay/HRS/Rocklobster
6532.60peter brisbo   Walnut Creek, CA00:43:33 347700  316 Roaring Mouse
7536.49John Knutson (2 - Cat4)   San Mateo, CA00:43:55 195024  328 Stover Seed
8540.38Gary Johnson   Gig Harbor, WA00:44:09 80892  321 Cyclo Pros
9Alex Anderson   00:44:34  327 Fox Racing Shox
10548.16Brian Ferrario (3 - Cat4)   San Jose, CA00:44:39 88248  329 Rocket Fuel
11552.05Dennis McGovern (4 - Cat4)   Foster City, CA00:45:10 150239  322 Roaring Mouse
12Torin Rotstein   00:45:17  334 Bay/HRS/Rocklobster
13559.83Andrew Murray (5 - Cat4)   Campbell, CA00:45:31 236540  310 SCCCC
14unknown rider   00:45:42  338 
15567.61Andrew Leisner   Pebble Beach, CA00:46:15 157932  318 Ghost Tree Racing
16Grant Stone   00:48:28  311 SCCCC
17575.39Bud Napolio   San Francisco, CA@1 Lap 60298  317 Wells Fargo RacingTeam
18Michael Shue   @1 Lap  307 Verticle Pandas
19583.17David Borba   Aptos, CA@1 Lap 335202  335 unattached
20Troy Mayfield   @1 Lap  332 Spokesman

Men - Cat 1/2/3/4

 Place Points NameCity, StateTime USAC #BibTeam
1151.59Andy Jacques-Maynes   Watsonville, CA01:06:15 17590  412 Bissell Pro Cycling
2160.32Scott Chapin   Santa Cruz, CA01:07:43 211669  430 Bay101/HRS/Rocklobster
3169.05Aaron Bradford   Santa Cruz, CA01:07:47 156335  427 Bay101/HRS/Rocklobster
4177.78Cody Kaiser   El Dorado Hills, CA01:08:17 202564  419 CalGiant/Specialized
5186.51Chris Jackson   Seattle, WA01:08:26 223028  413 Rambuski Law
6195.24Jeremiah Root   Fresno, CA01:08:45 30525  432 Steven's Bicycles Racing
7Aaron Odell   01:09:17  426 Bay101/HRS/Rocklobster
8212.70Tobin Ortenblad   Santacruz, CA01:09:30 303586  436 CalGiant/Specialized
9221.43Abe Rotstein   Watsonville, CA01:10:14 286497  433 Freewheel/Hunter
10230.16Justin Wallace   San Francisco, CA01:10:26 200983  414 NTGX
11238.89Benjamin Dodge   San Jose, CA01:10:26 178595  408 Bay101/HRS/Rocklobster
12247.62Derek Yarra   San Francisco, CA01:10:59 306457  409 Ibis/Buy-Cell.com
13256.35Eric Colton (1 - Cat2)   Mountain View, CA01:11:41 284235  406 SoCal Cross
14Tyler Frasca   01:12:43  434 unattached
15273.81Nicholas Weighall   Santa Cruz , CA01:13:11 128164  422 CalGiant/Specialized
16Devon Vigus   01:13:32  421 Sharp Bicycle
17291.27Christopher Kelly   Oakland, CA01:13:39 303770  417 Team Roaring Mouse
18300.00William Kemper   Cody Wy01:13:49 18873  429 Quadzilla
19308.73Matthew Young   San Francisco, CA01:14:05 50662  431 SYCIP
20Gannon Wyall   @1 Lap  440 CalGiant/Specialized
21326.19Teal Stetson-Lee   Reno, NV@1 Lap 252205  423 CalGiant/Specialized
22334.92Dean Poshard   Los Gatos, CA@1 Lap 75094  435 Bay101/HRS/Rocklobster
23343.65Gabriel Byrne   Santa Cruz, CA@1 Lap 178761  428 Dolore Grotta
24352.38Martin Acosta   East Palo Alto, CA@1 Lap 291277  439 Sterling Sport Group
25361.11Dustin White   Augusta, GA@1 Lap 332546  416 Sheila Moon
26Jonathan Schaute   @1 Lap  424 unattached
27378.57Christon DeWan (2 - Cat2)   San Francisco, CA@1 Lap 223372  407 Sheila Moon
28387.30Joseph Brody   Campbell, CA@1 Lap 108553  441 Quadzilla
29Jeff Patton   @1 Lap  438 Bay101/HRS/Rocklobster
30Glen Seitzvarnhagen   @1 Lap  415 5 Rings
31413.49Brendan Lehman   Santa Cruz, CADNF 285173  437 UCSC

Men - Cat 1/2/3/4 - Single Speed A

 Place Points NameCity, StateTime USAC #BibTeam
1Brock Dickie   Santa Cruz, CA01:11:47 42222  236 Ibis/Buy-Cell
2Alex Wark   01:11:48  250 Bay101/HRS/Rocklobster
3sean white (1 - Cat3)   Los Gatos, CA01:13:17 300949  247 Verve Coffe/Family Cycling Center
4Timothy Cannard   Los Gatos, CA@1 Lap 6002  249 Ibis/Buy-Cell
5Mat Gordon   San Francisco, CA@1 Lap 191313  243 Team Skinsuit
6Paule Bates   Santa Cruz, CA@1 Lap 112364  244 Team Roaring Mouse
7Stella Carey   Felton, CA@2 Lap 6104  239 Bay101/HRS/Rocklobster

Men - Cat 1/2/3/4 - Master A - 35-99

 Place Points NameCity, StateTime USAC #BibTeam
1423.73Alex Work   Santa Cruz, CA00:45:03 285472  909 Bay 101/HRS/Rocklobster
2433.06Brock Dickie   Santa Cruz, CA00:45:18 42222  902 Ibis/Buy-Cell.com
3442.39Donald Myrah   San Jose, CA00:46:30 25636  900 Ibis/Buy-Cell.com
4451.72Aron Bonar   Mountain View, CA00:46:47 195327  912 SYCIP
5461.05Eric Bustos   Alameda, CA00:46:52 40678  910 CalGiant/Specialized
6470.38Brij Lunine   Santa Cruz, CA00:46:58 21861  904 ABS/SCCCC
7Jason Rahlwes   00:47:04  906 Bay 101/HRS/Rocklobster
8Jordi Cortez   00:47:17  901 CalGiant/Specialized
9Mark Fitzsimmons   00:47:52  905 Family Cycling Center
10507.70Joshua Pizzica   Los Gatos, CA00:49:01 273910  911 Third Pillar
11517.03Matt Jordan   Santa Cruz, CA00:52:34 245591  908 Bay 101/HRS/Rocklobster
12526.36Cisco Moran   San Francisco, CA@1 Lap 185121  907 Team Roaring Mouse

Men - Cat 1/2/3/4 - Master A - 45-99

 Place Points NameCity, StateTime USAC #BibTeam
1Kevin Merrisan   00:45:46  720 Team Rambuski Law
2401.16John Mundelius   Alamo, CA00:46:00 131006  713 CalGiant/Specialized
3409.89Tao Bernardi   Dublin, CA00:46:20 3487  712 CalGiant/Specialized
4418.62Steve Ouzounian   Reno, NV00:47:05 41019  717 Dolores Grotta/B17 Swingin Cycles
5Rob Meigham   00:47:16  715 CalGiant/Specialized
6436.08Gannon Myall   Lafayette, CA00:47:44 25592  726 CalGiant/Specialized
7444.81Mark Howland   Santa Cruz, CA00:47:46 16935  707 Bay101/HRS/Rocklobster
8453.54John Kammeyer (1 - Cat3)   San Mateo, CA00:48:12 55661  702 PenVelo
9462.27Donald Langley   Morgan Hill, CA00:48:23 20327  718 CalGiant/Specialized
10471.00Tim Lydon   Sunnyvale, CA00:48:31 21896  710 SJBC
11479.73Keith DeFiebre   Prunedale, CA00:48:50 9046  777 Bay Bikes/Ritchey
12488.46Norman Kreiss   Orinda, CA00:49:10 127410  724 CalGiant/Specialized
13497.19Chris Gaffney   San Jose, CA00:49:14 286526  708 Webcore/Alto Velo
14505.92Mark Abele (1 - Cat4)   Concord, CA00:49:27 110709  719 Rivendale
15514.65Stacey Sell   Prunedale, CA00:49:38 235653  705 Verge/GoPro
16523.38Courtney Grossman   Salinas, CA00:50:08 86795  725 VOS Racing
17532.11Philip Sims (1 - Cat2)   Santa Cruz, CA00:50:28 79185  711 ABS/SCCCC
18540.84Karl Ehlert   Redwood City, CA00:50:33 10559  716 Team Rambuski Law
19Edwin Tambusti   00:50:58  714 Team Rambuski Law
20558.30Zack Beekler   Redwood City, CA00:51:00 249741  703 PenVelo
21567.03Steve Anderson   Monterey, CA00:52:17 236231  709 Team Roaring Mouse
22Tom Taylor   00:52:38  721 Team Roaring Mouse

Men - Master - 55-99

 Place Points NameCity, StateTime USAC #BibTeam
1540.00Frank Cuaresma   San Jose, CA00:44:19 147147  341 Cal Giant/Specialized
2547.14Jim Lund   San Leandro, CA00:44:21 21830  333 VSRT
3554.28Thomas Fox   San Francisco, CA00:44:24 211278  340 Team Roaring Mouse
4561.42Paul Sadoff   Santa Cruz, CA00:44:38 83434  339 Bay101/HRS/Rocklobster
5Brent Horris   00:50:08  331 Bay101/HRS/Rocklobster
6Neil S toddard   DNF  305 unattached
7Joseph Crabtree   DNF  336 Forest Hill Bike Shop
8589.98Morgan Caldwell (1 - Cat3)   Lafayette, CADNF 55374  338 Morgan Stanley

Men - Junior - 10-14

 Place Points NameCity, StateTime USAC #BibTeam
1Chris Hyde   00:40:44  308 Buy-cell.com
2546.25Sean Butler   Schwenksville00:41:58 339200  314 
3Jackson Rhodes   00:43:35  313 Hunter/Freewheel
4Ryan Chaney   00:46:42  320 Roaring Mouse
5Canyon Cali   00:46:43  312 
6Deacon Roby   00:47:58  325 Church of thr Sweet Ride
7Alex Shu   00:48:21  306 Olympic Club
8Spencer Chaney   00:52:25  319 Roaring Mouse
9Clay Wilson   DNF  315 

Men - Junior - 15-18

 Place Points NameCity, StateTime USAC #BibTeam
1191.18Tobin Ortenblad   Santacruz, CA00:42:05 303586  617 Cal Giant
2Chase Cummings   00:45:15  606 SCJCC
3457.06Chance Tiner   Santa Cruz, CA00:45:31 304640  601 SCJCC
4J.J. Kammeyer   @1 Lap  609 Pen Velo

Women - Cat 3/4 - C

 Place Points NameCity, StateTime USAC #BibTeam
1540.00Kate Riedell   Oakland, CA00:39:41 188596  418 Marin Spice & Wellness
2550.00Emily Cerna   Salinas, CA00:42:06 356076  420 DC-10
3560.00Nancy Howell (1 - Cat4)   San Francisco, CA00:44:42 334812  410 Sheila Moon
4L.C. Manglicmot   00:47:12  411 Shiela Moon
5Sue Monaco   00:50:20  425 unattached
6Lori Cali   DNF  405 unattached

Women - Cat 2/3/4 - B

 Place Points NameCity, StateTime USAC #BibTeam
1519.44Monica Harris   Oakdale, CA00:50:49 286874  706 FunSportBike Cycling
2537.08malia byers (1 - Cat4)   Santa Cruz, CA00:54:52 338694  728 Spokesman
3554.72Laura Jump (2 - Cat4)   San Jose, CA00:54:27 219542  730 Specialize
4572.36Elaine Minton (3 - Cat4)   Berkeley, CA00:55:21 268031  729 Team Roaring Mouse
5590.00Madeleine Myall   Lafayette, CA00:57:15 285956  727 CalGiant

Women - Cat 1/2/3/4

 Place Points NameCity, StateTime USAC #BibTeam
1292.68Devon Gorry   Logan, UT00:50:49 210903  914 Rambusky Law
2299.18Stella Carey   Felton, CA00:50:53 6104  915 Bay101/HRS/Rocklobster
3Katheryn Mattis   00:51:17  919 Webcore/Alto Velo
4312.18Katrina (Trina) Baumsteiger   San Luis Obispo, CA00:53:21 2947  903 Rambusky Law
5Josie Jaques-Maynes   00:53:47  921 CalGiant
6Courtney VanDimpel   00:54:25  916 Rambusky Law
7331.68Tammy Wallace   San Francisco, CA00:54:46 228693  920 Hank Furnam Racing
8Katie Mena   00:56:40  918 Bay101/HRS/Rocklobster
9344.68Michelle Melka (1 - Cat2)   Baltimore, MD00:57:41 302454  917 RED Racing
10351.18Carol Boland (1 - Cat4)   Capitola, CA00:58:36 233406  913 Sheila Moon
11Lindsey Collins   00:59:38  922 Another Bike Shop

Women - Master - 35-99

 Place Points NameCity, StateTime USAC #BibTeam
1434.60Janel Lodge (1 - Cat1)   Santa Cruz, CA00:47:36 136126  823 Bay101/HRS/Rocklobster
2482.41Kathleen Bortolussi   Aptos, CA00:48:31 146732  824 Bay101/HRS/Rocklobster
3530.22Julie Bates   Santa Cruz, CA00:49:36 205183  825 Team Roaring Mouse
4578.03Natasha Perry   Santa Cruz, CA00:52:39 215338  826 Bay101/HRS/Rocklobster

Women - Master - 45-99

 Place Points NameCity, StateTime USAC #BibTeam
1Cheryl Shue   00:48:29  519 RED Racing
2Michelle Perez   00:52:39  522 Bay101/HRS/Rocklobster
3590.00Michelle Nightengale   Modesto, CA00:58:17 290262  521 FunSportBikes Cycling

Women - Junior - 10-18

 Place Points NameCity, StateTime USAC #BibTeam
1Isabella Myrah   00:52:40  807 Buy-cell.com
2Justine Warwick   00:54:34  804 Salinas Cowboys

Report missing or incorrect license numbers

Volkswagen
USACDFSpySierra NevadaShimanoBonk Breaker
UCI USA Cycling is the official governing body for all disciplines of competitive cycling in the United States. The 501c3, membership-based organization aims both to achieve sustained success in international cycling competition and to grow competitive cycling in America while delivering an exceptional customer experience.
View Children's Online Privacy Protection Policy
US Olympic Committee